sensor_id;sensor_type;location;lat;lon;timestamp;pressure;altitude;pressure_sealevel;temperature;humidity
68994;BME280;56054;50.968;5.816;2023-07-31T00:02:06;100423.13;;;17.70;100.00
68994;BME280;56054;50.968;5.816;2023-07-31T00:05:13;100421.28;;;17.66;100.00
68994;BME280;56054;50.968;5.816;2023-07-31T00:08:20;100417.72;;;17.64;100.00
68994;BME280;56054;50.968;5.816;2023-07-31T00:11:27;100422.09;;;17.65;100.00
68994;BME280;56054;50.968;5.816;2023-07-31T00:14:34;100416.72;;;17.60;100.00
68994;BME280;56054;50.968;5.816;2023-07-31T00:17:41;100406.31;;;17.63;100.00
68994;BME280;56054;50.968;5.816;2023-07-31T00:20:48;100414.88;;;17.58;100.00
68994;BME280;56054;50.968;5.816;2023-07-31T00:23:55;100405.38;;;17.61;100.00
68994;BME280;56054;50.968;5.816;2023-07-31T00:27:02;100398.47;;;17.65;100.00
68994;BME280;56054;50.968;5.816;2023-07-31T00:30:10;100387.88;;;17.62;100.00
68994;BME280;56054;50.968;5.816;2023-07-31T00:33:17;100395.47;;;17.52;100.00
68994;BME280;56054;50.968;5.816;2023-07-31T00:36:24;100386.00;;;17.58;100.00
68994;BME280;56054;50.968;5.816;2023-07-31T00:39:34;100378.88;;;17.53;100.00
68994;BME280;56054;50.968;5.816;2023-07-31T00:42:41;100389.53;;;17.58;100.00
68994;BME280;56054;50.968;5.816;2023-07-31T00:45:48;100382.41;;;17.54;100.00
68994;BME280;56054;50.968;5.816;2023-07-31T00:48:56;100378.09;;;17.56;100.00
68994;BME280;56054;50.968;5.816;2023-07-31T00:52:04;100380.94;;;17.64;100.00
68994;BME280;56054;50.968;5.816;2023-07-31T00:55:10;100385.38;;;17.66;100.00
68994;BME280;56054;50.968;5.816;2023-07-31T00:58:18;100379.06;;;17.60;100.00
68994;BME280;56054;50.968;5.816;2023-07-31T01:01:27;100378.44;;;17.68;100.00
68994;BME280;56054;50.968;5.816;2023-07-31T01:04:34;100377.41;;;17.63;100.00
68994;BME280;56054;50.968;5.816;2023-07-31T01:11:07;100368.88;;;17.70;100.00
68994;BME280;56054;50.968;5.816;2023-07-31T01:14:18;100368.97;;;17.75;100.00
68994;BME280;56054;50.968;5.816;2023-07-31T01:17:25;100369.75;;;17.71;100.00
68994;BME280;56054;50.968;5.816;2023-07-31T01:20:33;100372.59;;;17.79;100.00
68994;BME280;56054;50.968;5.816;2023-07-31T01:27:24;100366.84;;;17.62;100.00
68994;BME280;56054;50.968;5.816;2023-07-31T01:30:35;100357.22;;;17.62;100.00
68994;BME280;56054;50.968;5.816;2023-07-31T01:33:43;100361.75;;;17.68;100.00
68994;BME280;56054;50.968;5.816;2023-07-31T01:36:50;100352.28;;;17.73;100.00
68994;BME280;56054;50.968;5.816;2023-07-31T01:39:57;100362.75;;;17.71;100.00
68994;BME280;56054;50.968;5.816;2023-07-31T01:43:04;100353.19;;;17.75;100.00
68994;BME280;56054;50.968;5.816;2023-07-31T01:46:11;100357.78;;;17.81;100.00
68994;BME280;56054;50.968;5.816;2023-07-31T01:49:18;100348.31;;;17.87;100.00
68994;BME280;56054;50.968;5.816;2023-07-31T01:52:25;100351.00;;;17.89;100.00
68994;BME280;56054;50.968;5.816;2023-07-31T01:55:32;100351.06;;;17.92;100.00
68994;BME280;56054;50.968;5.816;2023-07-31T01:58:39;100342.34;;;17.93;100.00
68994;BME280;56054;50.968;5.816;2023-07-31T02:01:46;100338.88;;;17.94;100.00
68994;BME280;56054;50.968;5.816;2023-07-31T02:04:53;100339.84;;;17.98;100.00
68994;BME280;56054;50.968;5.816;2023-07-31T02:08:00;100335.53;;;18.00;100.00
68994;BME280;56054;50.968;5.816;2023-07-31T02:11:07;100328.59;;;18.03;100.00
68994;BME280;56054;50.968;5.816;2023-07-31T02:14:14;100324.03;;;17.96;100.00
68994;BME280;56054;50.968;5.816;2023-07-31T02:17:21;100331.19;;;18.02;100.00
68994;BME280;56054;50.968;5.816;2023-07-31T02:20:28;100325.03;;;18.01;100.00
68994;BME280;56054;50.968;5.816;2023-07-31T02:23:36;100322.38;;;18.00;100.00
68994;BME280;56054;50.968;5.816;2023-07-31T02:26:42;100314.50;;;18.00;100.00
68994;BME280;56054;50.968;5.816;2023-07-31T02:29:56;100325.03;;;18.00;100.00
68994;BME280;56054;50.968;5.816;2023-07-31T02:33:04;100313.75;;;18.05;100.00
68994;BME280;56054;50.968;5.816;2023-07-31T02:36:11;100318.09;;;18.03;100.00
68994;BME280;56054;50.968;5.816;2023-07-31T02:39:18;100311.44;;;18.17;100.00
68994;BME280;56054;50.968;5.816;2023-07-31T02:42:25;100302.31;;;18.03;100.00
68994;BME280;56054;50.968;5.816;2023-07-31T02:45:32;100295.00;;;17.91;100.00
68994;BME280;56054;50.968;5.816;2023-07-31T02:48:39;100306.69;;;18.03;100.00
68994;BME280;56054;50.968;5.816;2023-07-31T02:51:47;100296.28;;;18.07;100.00
68994;BME280;56054;50.968;5.816;2023-07-31T02:54:54;100293.78;;;18.12;100.00
68994;BME280;56054;50.968;5.816;2023-07-31T02:58:02;100298.94;;;18.07;100.00
